EGNX/EMA METAR and TAF weather

Enter ICAO airport designator
Station Type Date Time Source
EGNX METAR 2019/06/16 07:50 UTC NOAA

EGNX 160750Z 16009KT 9999 BKN010 12/10 Q1014


Station Type Date Time Source
EGNX Decoded METAR 2019/06/16 07:50 UTC NOAA

East Midlands, United Kingdom (EGNX) 52-50N 001-20W
Jun 16, 2019 - 03:50 AM EDT / 2019.06.16 0750 UTC
Wind: from the SSE (160 degrees) at 10 MPH (9 KT):0
Visibility: greater than 7 mile(s):0
Sky conditions: mostly cloudy
Temperature: 53 F (12 C)
Dew Point: 50 F (10 C)
Relative Humidity: 87%
Pressure (altimeter): 29.94 in. Hg (1014 hPa)
ob: EGNX 160750Z 16009KT 9999 BKN010 12/10 Q1014
cycle: 8

Station Type Date Time Source
EGNX TAF 2019/06/16 06:09 UTC NOAA

TAF EGNX 160458Z 1606/1706 19012KT 9999 SCT030
TEMPO 1609/1621 6000 SHRA PROB30
TEMPO 1609/1706 BKN014 PROB30
TEMPO 1611/1618 19017G27KT 4000 +SHRA

Example: see airport list